Terminal Aerodrome Forecast
Issued by NWS

Home | Current Version | Previous Version | Text Only | Print | Product List | Glossary On
Versions: 1 2 3 4 5 6 7 8 9 10 11 12
241
FTUS46 KHNX 291724
TAFMER
TAF
KMER 291724Z 2918/3018 34008G15KT P6SM SKC
     FM300900 VRB03KT P6SM SKC=

USA.gov is the U.S. government's official web portal to all federal, state and local government web resources and services.